Time;durP1;ratioP1;P1;durP2;ratioP2;P2;SDS_P1;SDS_P2;PMS_P1;PMS_P2;Temp;Humidity;BMP_temperature;BMP_pressure;BME280_temperature;BME280_humidity;BME280_pressure;Samples;Min_cycle;Max_cycle;Signal;HPM_P1;HPM_P2
2022/06/04 00:01:46;;;;;;;1.10;1.10;;;19.30;99.90;;;;;;5074560;28;20207;-65
2022/06/04 00:04:14;;;;;;;1.27;1.20;;;19.20;99.90;;;;;;5064121;28;20269;-65
2022/06/04 00:06:44;;;;;;;1.23;1.13;;;19.20;99.90;;;;;;5067223;28;20289;-67
2022/06/04 00:09:11;;;;;;;1.30;1.30;;;19.10;99.90;;;;;;5071200;28;20290;-66
2022/06/04 00:17:19;;;;;;;1.20;1.20;;;18.90;99.90;;;;;;5022929;28;20194;-66
2022/06/04 00:19:46;;;;;;;1.13;1.13;;;18.90;99.90;;;;;;5055355;28;20207;-65
2022/06/04 00:22:14;;;;;;;1.00;1.00;;;18.90;99.90;;;;;;5071804;28;20206;-66
2022/06/04 00:24:43;;;;;;;1.03;1.03;;;18.90;99.90;;;;;;5065622;28;20298;-67
2022/06/04 00:27:15;;;;;;;1.00;1.00;;;18.90;99.90;;;;;;5075346;28;20204;-66
2022/06/04 00:29:41;;;;;;;1.10;1.10;;;18.90;99.90;;;;;;5067129;28;20339;-68
2022/06/04 00:32:08;;;;;;;1.37;1.27;;;18.90;99.90;;;;;;5067400;28;20212;-67
2022/06/04 00:34:35;;;;;;;1.10;1.10;;;18.90;99.90;;;;;;5071827;28;20569;-66
2022/06/04 00:37:02;;;;;;;1.00;1.00;;;18.80;99.90;;;;;;5072350;28;20210;-67
2022/06/04 00:39:31;;;;;;;1.10;1.10;;;18.80;99.90;;;;;;5072454;28;20203;-65
2022/06/04 00:42:05;;;;;;;1.30;1.30;;;18.90;99.90;;;;;;5072034;28;20291;-67
2022/06/04 00:45:08;;;;;;;1.00;1.00;;;19.00;99.90;;;;;;5072333;28;20313;-67
2022/06/04 00:47:36;;;;;;;0.98;0.98;;;18.90;99.90;;;;;;5063892;28;20198;-66
2022/06/04 00:50:04;;;;;;;1.00;1.00;;;18.90;99.90;;;;;;5073416;28;20570;-65
2022/06/04 00:52:32;;;;;;;1.02;1.02;;;18.90;99.90;;;;;;5074060;28;20234;-67
2022/06/04 00:55:01;;;;;;;1.10;1.10;;;18.90;99.90;;;;;;5069309;28;20388;-66
2022/06/04 00:57:51;;;;;;;1.02;1.02;;;19.00;99.90;;;;;;5071483;28;20238;-68
2022/06/04 01:00:20;;;;;;;1.00;1.00;;;18.90;99.90;;;;;;5071772;28;20681;-66
2022/06/04 01:02:59;;;;;;;1.10;1.10;;;18.90;99.90;;;;;;5070177;28;20218;-67
2022/06/04 01:05:33;;;;;;;1.00;1.00;;;19.00;99.90;;;;;;5072744;28;20226;-66
2022/06/04 01:08:29;;;;;;;1.00;1.00;;;19.00;99.90;;;;;;5074444;28;20206;-67
2022/06/04 01:11:12;;;;;;;1.02;1.02;;;19.00;99.90;;;;;;5069019;28;20250;-68
2022/06/04 01:14:01;;;;;;;0.90;0.90;;;19.00;99.90;;;;;;5067099;28;20310;-67
2022/06/04 01:16:34;;;;;;;0.98;0.98;;;18.90;99.90;;;;;;5075750;28;20348;-70
2022/06/04 01:19:19;;;;;;;1.00;1.00;;;18.90;99.90;;;;;;5086286;28;20290;-66
2022/06/04 01:22:01;;;;;;;1.17;1.17;;;18.90;99.90;;;;;;5076075;28;20286;-67
2022/06/04 01:24:44;;;;;;;1.20;1.20;;;18.90;99.90;;;;;;5071632;28;20294;-66
2022/06/04 01:27:21;;;;;;;1.33;1.30;;;18.80;99.90;;;;;;5082648;28;20618;-66
2022/06/04 01:29:55;;;;;;;1.10;1.10;;;18.70;99.90;;;;;;5084953;28;20294;-66
2022/06/04 01:32:30;;;;;;;1.20;1.20;;;18.60;99.90;;;;;;5076493;28;20318;-66
2022/06/04 01:35:06;;;;;;;1.00;1.00;;;18.60;99.90;;;;;;5084178;28;20660;-67
2022/06/04 01:37:38;;;;;;;0.95;0.95;;;18.60;99.90;;;;;;5075935;28;20213;-65
2022/06/04 01:42:58;;;;;;;1.00;1.00;;;18.60;99.90;;;;;;5073677;28;20293;-66
2022/06/04 01:45:28;;;;;;;1.00;1.00;;;18.50;99.90;;;;;;5080694;28;20302;-66
2022/06/04 01:47:57;;;;;;;1.00;1.00;;;18.50;99.90;;;;;;5081062;28;20203;-66
2022/06/04 01:50:29;;;;;;;1.20;1.10;;;18.50;99.90;;;;;;5088688;28;20733;-66
2022/06/04 01:52:59;;;;;;;1.20;1.20;;;18.50;99.90;;;;;;5077368;28;20227;-66
2022/06/04 01:55:31;;;;;;;1.10;1.10;;;18.50;99.90;;;;;;5083838;28;20210;-65
2022/06/04 01:58:03;;;;;;;1.00;1.00;;;18.50;99.90;;;;;;5076018;28;20206;-68
2022/06/04 02:00:33;;;;;;;1.00;1.00;;;18.40;99.90;;;;;;5071693;28;20201;-65
2022/06/04 02:03:06;;;;;;;1.10;1.10;;;18.40;99.90;;;;;;5079825;28;20297;-66
2022/06/04 02:05:47;;;;;;;0.90;0.90;;;18.40;99.90;;;;;;5068499;28;20215;-68
2022/06/04 02:08:17;;;;;;;1.08;1.08;;;18.50;99.90;;;;;;5082295;28;20223;-66
2022/06/04 02:10:49;;;;;;;1.10;1.10;;;18.40;99.90;;;;;;5078436;28;20256;-66
2022/06/04 02:13:18;;;;;;;1.33;1.33;;;18.40;99.90;;;;;;5080821;28;20311;-67
2022/06/04 02:15:51;;;;;;;1.40;1.40;;;18.40;99.90;;;;;;5084217;28;20206;-67
2022/06/04 02:18:18;;;;;;;1.30;1.30;;;18.40;99.90;;;;;;5083276;28;20203;-65
2022/06/04 02:20:44;;;;;;;1.30;1.20;;;18.40;99.90;;;;;;5078069;28;20639;-67
2022/06/04 02:23:12;;;;;;;1.15;1.15;;;18.40;99.90;;;;;;5083072;28;20798;-67
2022/06/04 02:25:39;;;;;;;1.10;1.10;;;18.40;99.90;;;;;;5081010;28;20291;-65
2022/06/04 02:28:07;;;;;;;1.30;1.30;;;18.40;99.90;;;;;;5079842;28;20724;-66
2022/06/04 02:30:44;;;;;;;1.10;1.10;;;18.40;99.90;;;;;;5068582;28;20203;-65
2022/06/04 02:33:19;;;;;;;1.20;1.20;;;18.30;99.90;;;;;;5081561;28;20263;-67
2022/06/04 02:35:53;;;;;;;1.20;1.20;;;18.20;99.90;;;;;;5066274;28;20290;-66
2022/06/04 02:38:26;;;;;;;1.30;1.30;;;18.10;99.90;;;;;;5083542;28;20234;-67
2022/06/04 02:40:57;;;;;;;1.37;1.33;;;18.10;99.90;;;;;;5075122;28;20314;-65
2022/06/04 02:43:31;;;;;;;1.00;1.00;;;18.10;99.90;;;;;;5084921;28;20322;-65
2022/06/04 02:46:11;;;;;;;1.00;1.00;;;18.10;99.90;;;;;;5076241;28;20210;-65
2022/06/04 02:48:41;;;;;;;1.00;1.00;;;18.20;99.90;;;;;;5070200;28;20198;-66
2022/06/04 02:51:13;;;;;;;1.02;1.02;;;18.30;99.90;;;;;;5073002;28;20207;-66
2022/06/04 02:53:41;;;;;;;0.83;0.83;;;18.30;99.90;;;;;;5084876;28;20227;-68
2022/06/04 02:56:12;;;;;;;1.00;1.00;;;18.30;99.90;;;;;;5073437;28;20245;-66
2022/06/04 02:58:41;;;;;;;1.00;1.00;;;18.30;99.90;;;;;;5076618;28;20230;-66
2022/06/04 03:01:11;;;;;;;1.00;1.00;;;18.30;99.90;;;;;;5081818;28;20285;-66
2022/06/04 03:03:39;;;;;;;1.08;1.08;;;18.30;99.90;;;;;;5082076;28;20242;-65
2022/06/04 03:06:20;;;;;;;0.90;0.90;;;18.40;99.90;;;;;;5084084;28;20295;-67
2022/06/04 03:08:47;;;;;;;1.10;1.10;;;18.40;99.90;;;;;;5087510;28;20729;-68
2022/06/04 03:11:14;;;;;;;1.00;1.00;;;18.40;99.90;;;;;;5085567;28;20289;-68
2022/06/04 03:13:41;;;;;;;1.13;1.13;;;18.40;99.90;;;;;;5086109;28;20826;-65
2022/06/04 03:16:09;;;;;;;1.00;1.00;;;18.30;99.90;;;;;;5086693;28;20205;-66
2022/06/04 03:18:37;;;;;;;1.10;1.10;;;18.40;99.90;;;;;;5082262;28;20203;-66
2022/06/04 03:21:04;;;;;;;1.20;1.10;;;18.40;99.90;;;;;;5087514;28;20232;-66
2022/06/04 03:23:31;;;;;;;1.10;1.10;;;18.40;99.90;;;;;;5082232;28;20230;-67
2022/06/04 03:25:58;;;;;;;1.00;1.00;;;18.40;99.90;;;;;;5088440;28;20241;-66
2022/06/04 03:28:25;;;;;;;1.20;1.20;;;18.50;99.90;;;;;;5088085;28;20294;-67
2022/06/04 03:30:52;;;;;;;1.00;1.00;;;18.50;99.90;;;;;;5093653;28;20226;-65
2022/06/04 03:33:20;;;;;;;1.30;1.30;;;18.50;99.90;;;;;;5086484;28;20265;-67
2022/06/04 03:35:47;;;;;;;1.50;1.40;;;18.50;99.90;;;;;;5081299;28;20293;-65
2022/06/04 03:38:14;;;;;;;1.30;1.30;;;18.50;99.90;;;;;;5085955;28;20289;-66
2022/06/04 03:40:41;;;;;;;1.85;1.35;;;18.40;99.90;;;;;;5087669;28;20202;-66
2022/06/04 03:43:08;;;;;;;1.43;1.27;;;18.40;99.90;;;;;;5092206;28;20226;-66
2022/06/04 03:45:35;;;;;;;1.02;1.02;;;18.40;99.90;;;;;;5092057;28;20254;-66
2022/06/04 03:48:02;;;;;;;1.10;1.10;;;18.40;99.90;;;;;;5098906;28;20739;-66
2022/06/04 03:50:32;;;;;;;0.90;0.90;;;18.50;99.90;;;;;;5082961;28;20531;-66
2022/06/04 03:52:59;;;;;;;1.00;1.00;;;18.60;99.90;;;;;;5082479;28;20234;-66
2022/06/04 03:55:25;;;;;;;1.27;1.00;;;18.60;99.90;;;;;;5087010;28;20294;-66
2022/06/04 03:57:53;;;;;;;1.27;1.20;;;18.70;99.90;;;;;;5084157;28;20199;-66
2022/06/04 04:00:22;;;;;;;1.00;1.00;;;18.70;99.90;;;;;;5082560;28;20683;-67
2022/06/04 04:02:51;;;;;;;1.20;1.20;;;18.80;99.90;;;;;;5080978;28;20306;-65
2022/06/04 04:05:21;;;;;;;1.00;1.00;;;18.80;99.90;;;;;;5081898;28;20298;-66
2022/06/04 04:07:49;;;;;;;1.17;1.17;;;19.00;99.90;;;;;;5085134;28;20203;-67
2022/06/04 04:10:17;;;;;;;1.20;1.20;;;19.00;99.90;;;;;;5078418;28;20218;-66
2022/06/04 04:12:44;;;;;;;1.65;1.55;;;18.90;99.90;;;;;;5078438;28;20655;-66
2022/06/04 04:15:12;;;;;;;1.58;1.48;;;18.90;99.90;;;;;;5082256;28;20286;-66
2022/06/04 04:17:39;;;;;;;1.50;1.48;;;18.80;99.90;;;;;;5079906;28;20220;-64
2022/06/04 04:20:10;;;;;;;1.60;1.50;;;18.90;99.90;;;;;;5083621;28;20206;-65
2022/06/04 04:22:37;;;;;;;1.48;1.30;;;18.90;99.90;;;;;;5085452;28;20641;-67
2022/06/04 04:25:07;;;;;;;1.55;1.48;;;18.80;99.90;;;;;;5084688;28;20283;-67
2022/06/04 04:27:34;;;;;;;1.70;1.60;;;18.80;99.90;;;;;;5080939;28;20281;-66
2022/06/04 04:30:01;;;;;;;1.40;1.40;;;18.80;99.90;;;;;;5077079;28;20302;-66
2022/06/04 04:32:28;;;;;;;1.30;1.30;;;18.90;99.90;;;;;;5084937;28;20293;-65
2022/06/04 04:34:55;;;;;;;1.40;1.30;;;18.90;99.90;;;;;;5085373;28;20226;-68
2022/06/04 04:37:21;;;;;;;1.40;1.33;;;19.00;99.90;;;;;;5083242;28;20572;-65
2022/06/04 04:39:48;;;;;;;1.30;1.30;;;18.90;99.90;;;;;;5067207;28;20299;-67
2022/06/04 04:42:17;;;;;;;1.20;1.20;;;19.00;99.90;;;;;;5073827;28;20202;-67
2022/06/04 04:44:44;;;;;;;1.30;1.30;;;19.10;99.90;;;;;;5086639;28;20602;-66
2022/06/04 04:47:11;;;;;;;1.20;1.20;;;19.10;99.90;;;;;;5086396;28;20246;-66
2022/06/04 04:49:38;;;;;;;1.15;1.15;;;19.10;99.90;;;;;;5090177;28;20215;-66
2022/06/04 04:52:06;;;;;;;1.50;1.33;;;19.20;99.90;;;;;;5078385;28;20290;-67
2022/06/04 04:54:33;;;;;;;1.67;1.57;;;19.20;99.90;;;;;;5091593;28;20286;-67
2022/06/04 04:57:00;;;;;;;1.80;1.70;;;19.20;99.90;;;;;;5091027;28;20234;-66
2022/06/04 04:59:29;;;;;;;1.70;1.60;;;19.20;99.90;;;;;;5090373;28;20625;-66
2022/06/04 05:01:55;;;;;;;1.50;1.40;;;19.20;99.90;;;;;;5090525;28;20203;-67
2022/06/04 05:04:22;;;;;;;2.00;1.90;;;19.20;99.90;;;;;;5081141;28;20225;-66
2022/06/04 05:06:49;;;;;;;1.90;1.80;;;19.20;99.90;;;;;;5086693;28;20214;-66
2022/06/04 05:09:16;;;;;;;1.80;1.70;;;19.20;99.90;;;;;;5082697;28;20306;-66
2022/06/04 05:11:43;;;;;;;2.00;1.90;;;19.20;99.90;;;;;;5080465;28;20238;-66
2022/06/04 05:14:10;;;;;;;1.90;1.80;;;19.00;99.90;;;;;;5086400;28;20223;-66
2022/06/04 05:16:40;;;;;;;1.63;1.52;;;19.00;99.90;;;;;;5080596;28;20205;-65
2022/06/04 05:19:08;;;;;;;1.75;1.65;;;18.90;99.90;;;;;;5087757;28;20298;-65
2022/06/04 05:21:41;;;;;;;2.10;2.00;;;18.90;99.90;;;;;;5080104;28;20626;-64
2022/06/04 05:24:14;;;;;;;1.98;1.88;;;18.90;99.90;;;;;;5087438;28;20309;-65
2022/06/04 05:26:41;;;;;;;2.10;2.00;;;18.90;99.90;;;;;;5080472;28;20206;-66
2022/06/04 05:29:08;;;;;;;2.00;1.90;;;18.80;99.90;;;;;;5080276;28;20203;-65
2022/06/04 05:31:35;;;;;;;1.65;1.60;;;18.80;99.90;;;;;;5087282;28;20207;-65
2022/06/04 05:34:04;;;;;;;1.77;1.70;;;18.80;99.90;;;;;;5077409;28;20227;-68
2022/06/04 05:36:31;;;;;;;1.52;1.52;;;18.80;99.90;;;;;;5075751;28;20199;-66
2022/06/04 05:38:58;;;;;;;1.40;1.40;;;18.80;99.90;;;;;;5103940;28;20227;-66
2022/06/04 05:41:25;;;;;;;1.48;1.38;;;18.80;99.90;;;;;;5098036;28;20203;-65
2022/06/04 05:43:53;;;;;;;1.63;1.52;;;18.80;99.90;;;;;;5089873;28;20243;-66
2022/06/04 05:46:22;;;;;;;1.50;1.40;;;18.80;99.90;;;;;;5083813;28;20207;-66
2022/06/04 05:48:48;;;;;;;1.40;1.40;;;18.80;99.90;;;;;;5082040;28;20199;-66
2022/06/04 05:51:19;;;;;;;1.40;1.40;;;18.90;99.90;;;;;;5080319;28;20294;-66
2022/06/04 05:53:48;;;;;;;1.60;1.50;;;18.90;99.90;;;;;;5082323;28;20302;-65
2022/06/04 05:56:18;;;;;;;1.38;1.38;;;18.90;99.90;;;;;;5081491;28;20206;-65
2022/06/04 05:58:47;;;;;;;1.33;1.33;;;19.00;99.90;;;;;;5084972;28;20792;-65
2022/06/04 06:01:14;;;;;;;1.70;1.60;;;19.10;99.90;;;;;;5081576;28;20285;-66
2022/06/04 06:03:41;;;;;;;1.58;1.50;;;19.10;99.90;;;;;;5082533;28;20230;-66
2022/06/04 06:06:13;;;;;;;1.33;1.33;;;19.20;99.90;;;;;;5082773;28;20305;-64
2022/06/04 06:08:41;;;;;;;1.57;1.50;;;19.20;99.90;;;;;;5083567;28;20202;-67
2022/06/04 06:11:09;;;;;;;1.50;1.40;;;19.20;99.90;;;;;;5082871;28;20664;-64
2022/06/04 06:13:36;;;;;;;1.70;1.60;;;19.30;99.90;;;;;;5081639;28;20226;-66
2022/06/04 06:16:08;;;;;;;1.60;1.50;;;19.40;99.90;;;;;;5084234;28;20230;-64
2022/06/04 06:18:35;;;;;;;1.50;1.47;;;19.50;99.90;;;;;;5082249;28;20203;-65
2022/06/04 06:21:06;;;;;;;1.50;1.40;;;19.60;99.90;;;;;;5083690;28;20209;-65
2022/06/04 06:23:33;;;;;;;1.30;1.30;;;19.80;99.90;;;;;;5080800;28;20234;-64
2022/06/04 06:26:04;;;;;;;1.20;1.20;;;19.90;99.90;;;;;;5083576;28;20206;-65
2022/06/04 06:28:31;;;;;;;1.40;1.40;;;19.90;99.90;;;;;;5081977;28;20203;-66
2022/06/04 06:30:58;;;;;;;1.58;1.50;;;20.00;99.90;;;;;;5084386;28;20203;-67
2022/06/04 06:33:25;;;;;;;1.70;1.60;;;19.90;99.90;;;;;;5060001;22;20292;-63
2022/06/04 06:35:56;;;;;;;1.60;1.50;;;19.80;99.90;;;;;;5049547;28;20266;-63
2022/06/04 06:38:23;;;;;;;1.50;1.50;;;19.80;99.90;;;;;;5049528;28;20258;-62
2022/06/04 06:40:51;;;;;;;1.80;1.70;;;19.80;99.90;;;;;;5042333;28;20233;-63
2022/06/04 06:43:20;;;;;;;1.60;1.50;;;19.80;99.90;;;;;;5050244;28;20228;-63
2022/06/04 06:45:47;;;;;;;1.40;1.40;;;19.80;99.90;;;;;;5047192;28;20703;-62
2022/06/04 06:48:14;;;;;;;1.50;1.50;;;19.80;99.90;;;;;;5050847;28;20269;-63
2022/06/04 06:50:42;;;;;;;1.60;1.50;;;19.80;99.90;;;;;;5049024;28;20207;-62
2022/06/04 06:53:10;;;;;;;1.50;1.42;;;19.90;99.90;;;;;;5040741;28;20232;-61
2022/06/04 06:55:37;;;;;;;1.50;1.50;;;19.90;99.90;;;;;;5049314;28;20263;-62
2022/06/04 06:58:04;;;;;;;1.50;1.50;;;20.10;99.90;;;;;;5039052;28;20197;-62
2022/06/04 07:00:32;;;;;;;1.77;1.67;;;20.20;99.90;;;;;;5036851;28;20291;-62
2022/06/04 07:02:59;;;;;;;1.50;1.40;;;20.30;99.90;;;;;;5040174;28;20823;-62
2022/06/04 07:05:26;;;;;;;1.27;1.27;;;20.60;99.90;;;;;;5042909;28;20208;-62
2022/06/04 07:07:53;;;;;;;1.40;1.40;;;21.00;99.90;;;;;;5047249;28;20208;-63
2022/06/04 07:10:20;;;;;;;1.60;1.50;;;21.20;99.90;;;;;;5043072;28;20296;-62
2022/06/04 07:12:46;;;;;;;1.63;1.60;;;21.50;99.90;;;;;;5049596;28;20318;-63
2022/06/04 07:15:13;;;;;;;1.50;1.50;;;21.70;99.90;;;;;;5041104;28;20303;-62
2022/06/04 07:17:42;;;;;;;1.52;1.42;;;21.90;99.90;;;;;;5030907;28;20259;-62
2022/06/04 07:20:10;;;;;;;1.58;1.50;;;22.20;99.90;;;;;;5032764;28;20730;-63
2022/06/04 07:22:37;;;;;;;2.00;1.90;;;22.30;99.90;;;;;;5037865;28;20709;-63
2022/06/04 07:25:04;;;;;;;1.60;1.60;;;22.40;99.90;;;;;;5044288;28;20259;-63
2022/06/04 07:27:31;;;;;;;1.37;1.37;;;22.40;99.90;;;;;;5029210;28;20314;-62
2022/06/04 07:29:58;;;;;;;1.38;1.30;;;22.20;99.90;;;;;;5047888;28;20243;-63
2022/06/04 07:32:25;;;;;;;1.52;1.42;;;22.10;99.90;;;;;;5043590;28;20255;-63
2022/06/04 07:34:53;;;;;;;1.30;1.30;;;22.00;99.90;;;;;;5037205;28;20319;-62
2022/06/04 07:37:20;;;;;;;1.30;1.30;;;22.00;99.90;;;;;;5039374;28;20255;-62
2022/06/04 07:39:47;;;;;;;1.20;1.20;;;22.00;99.90;;;;;;5041603;28;20239;-62
2022/06/04 07:42:14;;;;;;;1.40;1.30;;;22.10;99.90;;;;;;5034908;28;20248;-62
2022/06/04 07:44:41;;;;;;;1.40;1.30;;;22.40;99.90;;;;;;5034605;28;20203;-62
2022/06/04 07:47:08;;;;;;;1.15;1.15;;;22.60;99.90;;;;;;5032589;28;20347;-63
2022/06/04 07:49:35;;;;;;;1.10;1.10;;;22.60;99.90;;;;;;5035584;28;20256;-62
2022/06/04 07:52:04;;;;;;;1.10;1.10;;;22.80;99.90;;;;;;5032315;28;20680;-62
2022/06/04 07:54:31;;;;;;;1.02;1.02;;;22.90;99.90;;;;;;5035083;28;20220;-62
2022/06/04 07:56:58;;;;;;;1.02;1.02;;;23.10;99.90;;;;;;5034373;28;20204;-62
2022/06/04 07:59:26;;;;;;;1.00;1.00;;;23.30;99.90;;;;;;5040638;28;20320;-63
2022/06/04 08:01:53;;;;;;;0.93;0.93;;;23.30;99.90;;;;;;5044715;28;20220;-62
2022/06/04 08:04:20;;;;;;;0.90;0.90;;;23.20;99.90;;;;;;5043333;28;20211;-62
2022/06/04 08:06:47;;;;;;;0.90;0.90;;;23.10;99.90;;;;;;5041777;28;20573;-65
2022/06/04 08:09:15;;;;;;;0.90;0.90;;;23.00;99.90;;;;;;5043059;28;20201;-62
2022/06/04 08:11:42;;;;;;;0.90;0.90;;;23.00;99.90;;;;;;5050725;28;20264;-63
2022/06/04 08:14:13;;;;;;;1.27;1.00;;;22.90;99.90;;;;;;5040297;28;20382;-63
2022/06/04 08:16:44;;;;;;;1.00;1.00;;;22.80;99.90;;;;;;5038800;28;20205;-62
2022/06/04 08:19:11;;;;;;;1.00;1.00;;;22.70;99.90;;;;;;5041685;28;20235;-63
2022/06/04 08:21:40;;;;;;;0.82;0.82;;;22.60;99.90;;;;;;5041040;28;20287;-63
2022/06/04 08:24:08;;;;;;;1.00;1.00;;;22.50;99.90;;;;;;5043770;28;20243;-62
2022/06/04 08:26:38;;;;;;;0.82;0.82;;;22.40;99.90;;;;;;5044053;28;20339;-62
2022/06/04 08:29:05;;;;;;;0.90;0.90;;;22.30;99.90;;;;;;5042106;28;20232;-62
2022/06/04 08:31:33;;;;;;;0.90;0.90;;;22.20;99.90;;;;;;5040181;28;20686;-62
2022/06/04 08:34:00;;;;;;;1.00;1.00;;;22.20;99.90;;;;;;5038217;28;21010;-63
2022/06/04 08:36:27;;;;;;;0.90;0.90;;;22.10;99.90;;;;;;5040708;28;20234;-62
2022/06/04 08:38:54;;;;;;;1.00;1.00;;;22.00;99.90;;;;;;5046070;28;20197;-62
2022/06/04 08:41:33;;;;;;;1.10;1.10;;;21.90;99.90;;;;;;5048424;28;20204;-61
2022/06/04 08:44:06;;;;;;;0.90;0.90;;;21.80;99.90;;;;;;5041969;28;20205;-63
2022/06/04 08:46:40;;;;;;;1.10;1.10;;;21.80;99.90;;;;;;5039546;28;20215;-62
2022/06/04 08:49:13;;;;;;;1.10;1.10;;;21.70;99.90;;;;;;5033674;28;20197;-62
2022/06/04 08:51:42;;;;;;;1.30;1.30;;;21.70;99.90;;;;;;5028392;28;20230;-63
2022/06/04 08:59:51;;;;;;;1.23;1.20;;;21.50;99.90;;;;;;5032350;28;20692;-64
2022/06/04 09:02:23;;;;;;;1.55;1.50;;;21.50;99.90;;;;;;5035566;28;20231;-63
2022/06/04 09:05:00;;;;;;;1.60;1.50;;;21.40;99.90;;;;;;5030736;28;20220;-63
2022/06/04 09:07:31;;;;;;;1.60;1.50;;;21.50;99.90;;;;;;5032396;28;20215;-64
2022/06/04 09:10:03;;;;;;;1.38;1.35;;;21.50;99.90;;;;;;5030223;28;20207;-63
2022/06/04 09:12:35;;;;;;;1.20;1.20;;;21.60;99.90;;;;;;5032035;28;20728;-62
2022/06/04 09:15:11;;;;;;;1.40;1.30;;;21.60;99.90;;;;;;5032452;28;20215;-63
2022/06/04 09:17:46;;;;;;;1.30;1.30;;;21.70;99.90;;;;;;5031788;28;20265;-62
2022/06/04 09:20:21;;;;;;;1.40;1.40;;;21.80;99.90;;;;;;5030439;28;20266;-64
2022/06/04 09:22:49;;;;;;;1.52;1.42;;;21.70;99.90;;;;;;5031108;28;20303;-62
2022/06/04 09:25:18;;;;;;;1.45;1.38;;;21.70;99.90;;;;;;5030727;28;20201;-64
2022/06/04 09:27:56;;;;;;;2.53;1.55;;;21.90;99.90;;;;;;5033943;28;20215;-62
2022/06/04 09:30:28;;;;;;;1.60;1.50;;;21.90;99.90;;;;;;5036631;28;20284;-63
2022/06/04 09:33:11;;;;;;;1.75;1.65;;;21.90;99.90;;;;;;5035495;28;20772;-62
2022/06/04 09:35:42;;;;;;;1.40;1.40;;;22.00;99.90;;;;;;5033549;28;20286;-62
2022/06/04 09:38:23;;;;;;;1.80;1.70;;;22.20;99.90;;;;;;5029474;28;20243;-63
2022/06/04 09:40:58;;;;;;;1.33;1.33;;;22.30;99.90;;;;;;5031470;28;20231;-63
2022/06/04 09:43:25;;;;;;;1.40;1.40;;;22.60;99.90;;;;;;5033017;28;20216;-63
2022/06/04 09:45:56;;;;;;;1.10;1.10;;;22.80;99.90;;;;;;5038062;28;20276;-63
2022/06/04 09:48:26;;;;;;;1.20;1.10;;;23.10;99.90;;;;;;5038067;28;20232;-63
2022/06/04 09:50:55;;;;;;;1.10;1.10;;;23.30;99.90;;;;;;5033383;28;20677;-63
2022/06/04 09:53:25;;;;;;;1.00;1.00;;;23.40;99.90;;;;;;5034035;28;20224;-62
2022/06/04 09:55:56;;;;;;;0.90;0.90;;;23.30;99.90;;;;;;5033800;28;20231;-64
2022/06/04 09:58:28;;;;;;;1.10;1.10;;;23.50;99.90;;;;;;5036239;28;20196;-63
2022/06/04 10:01:00;;;;;;;1.00;1.00;;;23.80;99.90;;;;;;5035414;28;20294;-62
2022/06/04 10:03:28;;;;;;;1.00;1.00;;;23.70;99.90;;;;;;5034164;28;20773;-63
2022/06/04 10:06:02;;;;;;;1.23;1.13;;;23.60;99.90;;;;;;5034918;28;20224;-62
2022/06/04 10:08:30;;;;;;;1.00;1.00;;;23.70;99.90;;;;;;5033604;28;20299;-62
2022/06/04 10:10:59;;;;;;;1.20;1.20;;;23.80;99.90;;;;;;5036848;28;20259;-62
2022/06/04 10:13:46;;;;;;;1.00;1.00;;;23.80;99.90;;;;;;5035283;28;20522;-62
2022/06/04 10:16:20;;;;;;;1.20;1.20;;;23.90;99.90;;;;;;5033809;28;20644;-62
2022/06/04 10:18:58;;;;;;;1.10;1.10;;;24.20;99.90;;;;;;5033994;28;20242;-62
2022/06/04 10:21:29;;;;;;;1.10;1.10;;;24.40;99.90;;;;;;5033272;28;20201;-63
2022/06/04 10:23:57;;;;;;;1.20;1.20;;;24.50;99.90;;;;;;5033579;28;20235;-62
2022/06/04 10:26:41;;;;;;;1.00;1.00;;;24.40;99.90;;;;;;5027649;28;20628;-62
2022/06/04 10:29:33;;;;;;;1.00;1.00;;;24.40;99.90;;;;;;5030443;28;20653;-62
2022/06/04 10:32:08;;;;;;;0.80;0.80;;;24.50;99.90;;;;;;5029928;28;20601;-61
2022/06/04 10:34:45;;;;;;;0.98;0.98;;;24.60;99.90;;;;;;5024115;28;20224;-63
2022/06/04 10:37:26;;;;;;;1.10;1.10;;;24.50;99.90;;;;;;5030962;28;20193;-62
2022/06/04 10:40:08;;;;;;;1.00;1.00;;;24.40;99.90;;;;;;5025461;28;20235;-63
2022/06/04 10:42:47;;;;;;;1.10;1.10;;;24.30;99.90;;;;;;5029739;28;20605;-64
2022/06/04 10:45:19;;;;;;;1.00;1.00;;;24.40;99.90;;;;;;5026682;28;20331;-63
2022/06/04 10:47:51;;;;;;;1.07;1.07;;;24.50;99.90;;;;;;5026703;28;20251;-63
2022/06/04 10:51:25;;;;;;;0.90;0.90;;;24.50;99.90;;;;;;5030768;28;20592;-63
2022/06/04 10:53:34;;;;;;;0.88;0.88;;;24.50;99.90;;;;;;5028138;28;20219;-62
2022/06/04 10:56:08;;;;;;;0.97;0.97;;;24.60;99.90;;;;;;5028318;28;20223;-63
2022/06/04 10:58:41;;;;;;;0.90;0.90;;;24.90;99.90;;;;;;5027208;28;20227;-63
2022/06/04 11:01:14;;;;;;;1.00;1.00;;;24.80;99.90;;;;;;5030148;28;20232;-61
2022/06/04 11:03:50;;;;;;;0.90;0.90;;;24.90;99.90;;;;;;5027895;28;20236;-63
2022/06/04 11:06:23;;;;;;;1.20;1.20;;;25.10;99.90;;;;;;5030415;28;20295;-62
2022/06/04 11:08:56;;;;;;;1.00;1.00;;;25.40;99.90;;;;;;5031033;28;20254;-62
2022/06/04 11:11:28;;;;;;;1.10;1.10;;;25.20;99.90;;;;;;5031006;28;20201;-62
2022/06/04 11:13:59;;;;;;;1.10;1.10;;;25.20;99.90;;;;;;5027564;28;20283;-63
2022/06/04 11:16:34;;;;;;;1.08;1.08;;;25.20;99.90;;;;;;5032376;28;20300;-62
2022/06/04 11:19:07;;;;;;;1.00;1.00;;;25.30;99.90;;;;;;5032335;28;20254;-62
2022/06/04 11:21:41;;;;;;;0.95;0.95;;;25.30;99.90;;;;;;5029936;28;20208;-63
2022/06/04 11:24:15;;;;;;;0.80;0.80;;;25.20;99.90;;;;;;5030520;28;20566;-62
2022/06/04 11:26:47;;;;;;;1.00;1.00;;;25.30;99.90;;;;;;5032111;28;20263;-63
2022/06/04 11:29:14;;;;;;;0.80;0.80;;;25.50;99.90;;;;;;5039548;28;20201;-64
2022/06/04 11:31:58;;;;;;;0.95;0.95;;;25.70;99.90;;;;;;5042119;28;20208;-63
2022/06/04 11:35:11;;;;;;;0.90;0.90;;;25.70;99.90;;;;;;5038640;28;20659;-63
2022/06/04 11:38:03;;;;;;;0.98;0.98;;;25.90;99.90;;;;;;5033751;28;20291;-63
2022/06/04 11:40:37;;;;;;;1.00;1.00;;;26.00;99.90;;;;;;5034831;28;20204;-63
2022/06/04 11:43:14;;;;;;;0.90;0.90;;;26.20;99.90;;;;;;5042872;28;20224;-63
2022/06/04 11:46:00;;;;;;;0.95;0.95;;;26.20;99.90;;;;;;5037204;28;20208;-63
2022/06/04 11:48:47;;;;;;;0.90;0.90;;;26.20;99.90;;;;;;5039848;28;20201;-63
2022/06/04 11:51:31;;;;;;;1.02;1.02;;;26.20;99.90;;;;;;5042062;28;20236;-65
2022/06/04 11:54:06;;;;;;;0.90;0.90;;;26.20;99.90;;;;;;5052510;28;20209;-63
2022/06/04 11:56:41;;;;;;;0.63;0.63;;;26.00;99.90;;;;;;5044244;28;20238;-63
2022/06/04 11:59:26;;;;;;;1.00;1.00;;;26.20;99.90;;;;;;5052830;28;20927;-64
2022/06/04 12:01:59;;;;;;;0.85;0.85;;;26.20;99.90;;;;;;5050996;28;20729;-63
2022/06/04 12:04:32;;;;;;;1.10;1.10;;;26.00;99.90;;;;;;5041394;28;20295;-62
2022/06/04 12:07:07;;;;;;;1.00;1.00;;;26.10;99.90;;;;;;5047555;28;20203;-65
2022/06/04 12:09:46;;;;;;;1.27;1.02;;;26.30;99.90;;;;;;5043320;28;20745;-64
2022/06/04 12:12:19;;;;;;;0.90;0.90;;;26.50;99.90;;;;;;5047808;28;20223;-62
2022/06/04 12:14:52;;;;;;;1.00;1.00;;;26.50;99.90;;;;;;5044659;28;20210;-62
2022/06/04 12:17:25;;;;;;;1.00;1.00;;;26.70;99.90;;;;;;5049358;28;20227;-63
2022/06/04 12:25:36;;;;;;;1.00;1.00;;;27.20;99.90;;;;;;5032716;28;20206;-64
2022/06/04 12:28:19;;;;;;;0.90;0.90;;;27.40;99.90;;;;;;5044669;28;20242;-63
2022/06/04 12:30:47;;;;;;;0.70;0.70;;;27.20;99.90;;;;;;5040402;28;20223;-63
2022/06/04 12:33:26;;;;;;;0.93;0.93;;;27.10;99.90;;;;;;5048131;28;20228;-64
2022/06/04 12:35:59;;;;;;;0.98;0.98;;;27.20;99.90;;;;;;5046725;28;20311;-63
2022/06/04 12:38:27;;;;;;;0.85;0.85;;;27.30;99.90;;;;;;5040302;28;20204;-62
2022/06/04 12:41:13;;;;;;;1.00;1.00;;;27.40;99.90;;;;;;5049081;28;20212;-64
2022/06/04 12:43:42;;;;;;;0.90;0.90;;;27.50;99.90;;;;;;5047099;28;20287;-64
2022/06/04 12:46:30;;;;;;;0.80;0.80;;;27.50;99.90;;;;;;5057327;28;20200;-64
2022/06/04 12:49:02;;;;;;;0.80;0.80;;;27.60;99.90;;;;;;5052132;28;20694;-63
2022/06/04 12:51:47;;;;;;;0.70;0.70;;;27.90;99.90;;;;;;5048594;28;20242;-64
2022/06/04 12:54:47;;;;;;;0.90;0.90;;;27.90;99.90;;;;;;5055627;28;20677;-65
2022/06/04 12:57:31;;;;;;;1.00;1.00;;;28.00;99.90;;;;;;5047541;28;20234;-63
2022/06/04 13:00:29;;;;;;;1.15;1.10;;;28.00;99.90;;;;;;5051589;28;20295;-64
2022/06/04 13:03:00;;;;;;;0.95;0.95;;;28.00;99.90;;;;;;5028513;28;20225;-64
2022/06/04 13:05:29;;;;;;;0.60;0.60;;;28.00;99.90;;;;;;5060727;28;20204;-65
2022/06/04 13:08:08;;;;;;;0.90;0.90;;;28.00;99.90;;;;;;5050499;28;20264;-65
2022/06/04 13:10:41;;;;;;;1.23;1.23;;;28.10;99.90;;;;;;5035698;28;20203;-64
2022/06/04 13:13:22;;;;;;;0.80;0.80;;;28.10;99.90;;;;;;5046263;28;20947;-64
2022/06/04 13:15:56;;;;;;;1.08;1.08;;;28.10;99.90;;;;;;5049740;28;20224;-64
2022/06/04 13:18:26;;;;;;;1.10;1.10;;;28.20;99.90;;;;;;5045856;28;20196;-64
2022/06/04 13:20:57;;;;;;;1.10;1.10;;;28.10;99.90;;;;;;5050783;28;20204;-63
2022/06/04 13:23:34;;;;;;;1.10;1.10;;;27.80;99.90;;;;;;5046305;28;20228;-64
2022/06/04 13:26:18;;;;;;;1.00;1.00;;;27.60;99.90;;;;;;5050760;28;20717;-63
2022/06/04 13:28:49;;;;;;;1.05;1.05;;;27.60;99.90;;;;;;5041382;28;20207;-64
2022/06/04 13:31:19;;;;;;;0.80;0.80;;;27.70;99.90;;;;;;5044600;28;20232;-62